Time;durP1;ratioP1;P1;durP2;ratioP2;P2;SDS_P1;SDS_P2;PMS_P1;PMS_P2;Temp;Humidity;BMP_temperature;BMP_pressure;BME280_temperature;BME280_humidity;BME280_pressure;Samples;Min_cycle;Max_cycle;Signal;HPM_P1;HPM_P2
2022/03/09 00:01:38;;;;;;;0.10;0.10;;;;;;;;;;5069661;28;20029;-67
2022/03/09 00:04:04;;;;;;;0.10;0.10;;;;;;;;;;5053771;28;20032;-68
2022/03/09 00:06:30;;;;;;;0.08;0.08;;;;;;;;;;5071526;28;20040;-68
2022/03/09 00:08:55;;;;;;;0.10;0.10;;;;;;;;;;5071449;28;20037;-68
2022/03/09 00:11:20;;;;;;;0.10;0.10;;;;;;;;;;5071637;28;20039;-67
2022/03/09 00:13:46;;;;;;;0.35;0.35;;;;;;;;;;5071769;28;20025;-68
2022/03/09 00:16:12;;;;;;;0.10;0.10;;;;;;;;;;5071808;28;20032;-68
2022/03/09 00:18:38;;;;;;;0.10;0.10;;;;;;;;;;5071640;28;20036;-68
2022/03/09 00:21:04;;;;;;;0.10;0.10;;;;;;;;;;5071495;28;20094;-68
2022/03/09 00:23:30;;;;;;;5.97;5.63;;;;;;;;;;5071440;28;20427;-67
2022/03/09 00:25:55;;;;;;;0.10;0.10;;;;;;;;;;5073786;28;20074;-67
2022/03/09 00:28:21;;;;;;;0.10;0.10;;;;;;;;;;5056862;28;20483;-68
2022/03/09 00:30:46;;;;;;;0.10;0.10;;;;;;;;;;5074910;28;20476;-68
2022/03/09 00:33:12;;;;;;;0.10;0.10;;;;;;;;;;5074854;28;20063;-67
2022/03/09 00:35:38;;;;;;;0.30;0.30;;;;;;;;;;5074730;28;20460;-66
2022/03/09 00:38:04;;;;;;;0.20;0.20;;;;;;;;;;5074632;28;20361;-68
2022/03/09 00:40:30;;;;;;;0.10;0.10;;;;;;;;;;5074280;28;20066;-66
2022/03/09 00:42:56;;;;;;;2.70;1.48;;;;;;;;;;5074743;28;20067;-66
2022/03/09 00:45:21;;;;;;;0.10;0.10;;;;;;;;;;5074816;28;20116;-66
2022/03/09 00:47:47;;;;;;;0.30;0.30;;;;;;;;;;5074370;28;20043;-66
2022/03/09 00:50:12;;;;;;;1.30;0.90;;;;;;;;;;5074525;28;20051;-66
2022/03/09 00:52:38;;;;;;;1.58;1.08;;;;;;;;;;5074543;28;20403;-67
2022/03/09 00:55:04;;;;;;;0.95;0.50;;;;;;;;;;5074337;28;20037;-66
2022/03/09 00:57:30;;;;;;;2.28;2.17;;;;;;;;;;5074545;28;20181;-66
2022/03/09 00:59:55;;;;;;;0.50;0.50;;;;;;;;;;5074396;28;20116;-67
2022/03/09 01:02:21;;;;;;;0.10;0.10;;;;;;;;;;5056543;28;20063;-67
2022/03/09 01:04:46;;;;;;;0.10;0.10;;;;;;;;;;5074592;28;20032;-65
2022/03/09 01:07:12;;;;;;;0.65;0.65;;;;;;;;;;5074186;28;20058;-67
2022/03/09 01:09:37;;;;;;;1.55;1.55;;;;;;;;;;5055952;28;20044;-67
2022/03/09 01:12:03;;;;;;;0.22;0.22;;;;;;;;;;5074323;28;20082;-66
2022/03/09 01:14:29;;;;;;;0.95;0.88;;;;;;;;;;5074114;28;20033;-65
2022/03/09 01:16:54;;;;;;;0.40;0.40;;;;;;;;;;5074047;28;20060;-66
2022/03/09 01:19:20;;;;;;;0.10;0.10;;;;;;;;;;5073932;28;20135;-64
2022/03/09 01:21:46;;;;;;;0.10;0.10;;;;;;;;;;5056293;28;20043;-66
2022/03/09 01:24:11;;;;;;;0.10;0.10;;;;;;;;;;5073982;28;20043;-67
2022/03/09 01:26:37;;;;;;;0.10;0.10;;;;;;;;;;5073774;28;20032;-66
2022/03/09 01:29:06;;;;;;;0.10;0.10;;;;;;;;;;5073703;28;20408;-66
2022/03/09 01:31:33;;;;;;;0.25;0.25;;;;;;;;;;5073938;28;20492;-67
2022/03/09 01:33:59;;;;;;;0.47;0.47;;;;;;;;;;5073521;28;20032;-67
2022/03/09 01:36:25;;;;;;;3.42;2.15;;;;;;;;;;5070967;28;20085;-66
2022/03/09 01:38:50;;;;;;;0.10;0.10;;;;;;;;;;5072519;28;20416;-66
2022/03/09 01:41:16;;;;;;;0.65;0.52;;;;;;;;;;5073535;28;20024;-66
2022/03/09 01:43:41;;;;;;;0.20;0.20;;;;;;;;;;5056033;28;20050;-67
2022/03/09 01:46:07;;;;;;;0.10;0.10;;;;;;;;;;5073747;28;20099;-66
2022/03/09 01:48:32;;;;;;;0.22;0.20;;;;;;;;;;5072586;28;20529;-65
2022/03/09 01:50:58;;;;;;;0.45;0.35;;;;;;;;;;5054635;28;20044;-65
2022/03/09 01:53:25;;;;;;;0.10;0.10;;;;;;;;;;5051640;28;20495;-65
2022/03/09 01:55:50;;;;;;;0.25;0.25;;;;;;;;;;5051200;28;20195;-63
2022/03/09 01:58:16;;;;;;;0.10;0.10;;;;;;;;;;5033533;28;20123;-66
2022/03/09 02:00:41;;;;;;;0.10;0.10;;;;;;;;;;5051345;28;20024;-65
2022/03/09 02:03:07;;;;;;;0.38;0.38;;;;;;;;;;5051527;28;20067;-66
2022/03/09 02:05:33;;;;;;;0.03;0.03;;;;;;;;;;5053324;28;20037;-66
2022/03/09 02:10:42;;;;;;;0.63;0.57;;;;;;;;;;5053530;28;20064;-66
2022/03/09 02:13:08;;;;;;;0.70;0.70;;;;;;;;;;5053239;28;20060;-65
2022/03/09 02:15:34;;;;;;;0.20;0.20;;;;;;;;;;5053287;28;20035;-65
2022/03/09 02:18:00;;;;;;;0.10;0.10;;;;;;;;;;5053122;28;20040;-65
2022/03/09 02:20:26;;;;;;;0.10;0.10;;;;;;;;;;5053094;28;20117;-65
2022/03/09 02:22:53;;;;;;;0.10;0.10;;;;;;;;;;5052818;28;20029;-65
2022/03/09 02:25:19;;;;;;;0.10;0.10;;;;;;;;;;5053354;28;20079;-64
2022/03/09 02:27:45;;;;;;;0.30;0.30;;;;;;;;;;5052872;28;20404;-66
2022/03/09 02:30:13;;;;;;;0.10;0.10;;;;;;;;;;5052841;28;20029;-65
2022/03/09 02:32:43;;;;;;;0.10;0.10;;;;;;;;;;5035143;28;20128;-68
2022/03/09 02:35:09;;;;;;;0.10;0.10;;;;;;;;;;5052829;28;20040;-65
2022/03/09 02:37:35;;;;;;;0.10;0.10;;;;;;;;;;5052613;28;20108;-65
2022/03/09 02:40:00;;;;;;;0.10;0.10;;;;;;;;;;5052804;28;20120;-64
2022/03/09 02:42:26;;;;;;;0.10;0.10;;;;;;;;;;5053241;28;20032;-65
2022/03/09 02:44:52;;;;;;;0.10;0.10;;;;;;;;;;5052899;28;20025;-65
2022/03/09 02:47:17;;;;;;;0.10;0.10;;;;;;;;;;5034572;28;20039;-66
2022/03/09 02:49:43;;;;;;;0.10;0.10;;;;;;;;;;5052738;28;20028;-64
2022/03/09 02:52:08;;;;;;;0.10;0.10;;;;;;;;;;5052469;28;20495;-65
2022/03/09 02:54:34;;;;;;;0.10;0.10;;;;;;;;;;5052710;28;20029;-64
2022/03/09 02:57:00;;;;;;;1.98;1.90;;;;;;;;;;5018459;28;20459;-65
2022/03/09 02:59:25;;;;;;;0.10;0.10;;;;;;;;;;5052561;28;20078;-66
2022/03/09 03:01:51;;;;;;;0.10;0.10;;;;;;;;;;5052441;28;20036;-67
2022/03/09 03:04:16;;;;;;;0.10;0.10;;;;;;;;;;5052449;28;20024;-65
2022/03/09 03:06:42;;;;;;;0.17;0.17;;;;;;;;;;5052417;28;20071;-65
2022/03/09 03:09:07;;;;;;;0.10;0.10;;;;;;;;;;5034370;28;20053;-65
2022/03/09 03:11:33;;;;;;;0.10;0.10;;;;;;;;;;5052494;28;20029;-65
2022/03/09 03:13:58;;;;;;;0.47;0.47;;;;;;;;;;5052465;28;20033;-65
2022/03/09 03:16:24;;;;;;;0.30;0.30;;;;;;;;;;5034389;28;20033;-65
2022/03/09 03:18:49;;;;;;;0.10;0.10;;;;;;;;;;5052312;28;20036;-66
2022/03/09 03:21:15;;;;;;;0.10;0.10;;;;;;;;;;5052211;28;20040;-65
2022/03/09 03:23:40;;;;;;;0.10;0.10;;;;;;;;;;5052124;28;20029;-65
2022/03/09 03:26:06;;;;;;;0.10;0.10;;;;;;;;;;5034557;28;20065;-65
2022/03/09 03:28:32;;;;;;;0.10;0.10;;;;;;;;;;5034168;28;20037;-65
2022/03/09 03:30:57;;;;;;;0.10;0.10;;;;;;;;;;5052121;28;20068;-66
2022/03/09 03:33:23;;;;;;;0.13;0.13;;;;;;;;;;5052118;28;20052;-66
2022/03/09 03:35:49;;;;;;;0.10;0.10;;;;;;;;;;5051957;28;20533;-66
2022/03/09 03:38:15;;;;;;;0.20;0.20;;;;;;;;;;5034110;28;20021;-66
2022/03/09 03:40:40;;;;;;;0.10;0.10;;;;;;;;;;5052413;28;20032;-65
2022/03/09 03:43:06;;;;;;;0.10;0.10;;;;;;;;;;5052080;28;20479;-66
2022/03/09 03:45:32;;;;;;;0.10;0.10;;;;;;;;;;5034339;28;20024;-66
2022/03/09 03:47:57;;;;;;;0.10;0.10;;;;;;;;;;5051713;28;20052;-66
2022/03/09 03:50:23;;;;;;;0.10;0.10;;;;;;;;;;5051968;28;20029;-66
2022/03/09 03:52:48;;;;;;;0.85;0.55;;;;;;;;;;5051638;28;20389;-66
2022/03/09 03:55:14;;;;;;;0.10;0.10;;;;;;;;;;5034231;28;20120;-66
2022/03/09 03:57:40;;;;;;;0.10;0.10;;;;;;;;;;5033810;28;20033;-67
2022/03/09 04:00:06;;;;;;;0.10;0.10;;;;;;;;;;5053212;28;20060;-65
2022/03/09 04:02:32;;;;;;;0.20;0.20;;;;;;;;;;5038316;28;20480;-67
2022/03/09 04:04:58;;;;;;;0.10;0.10;;;;;;;;;;5071715;28;20098;-65
2022/03/09 04:07:23;;;;;;;0.10;0.10;;;;;;;;;;5071306;28;20028;-66
2022/03/09 04:09:49;;;;;;;0.10;0.10;;;;;;;;;;5071391;28;20496;-65
2022/03/09 04:12:14;;;;;;;0.10;0.10;;;;;;;;;;5071180;28;20388;-67
2022/03/09 04:14:40;;;;;;;0.10;0.10;;;;;;;;;;5053548;28;20028;-66
2022/03/09 04:17:05;;;;;;;0.10;0.10;;;;;;;;;;5053435;28;20521;-66
2022/03/09 04:19:31;;;;;;;0.10;0.10;;;;;;;;;;5053297;28;20040;-67
2022/03/09 04:21:56;;;;;;;0.10;0.10;;;;;;;;;;5071276;28;20366;-64
2022/03/09 04:24:22;;;;;;;2.17;0.75;;;;;;;;;;5071229;28;20021;-66
2022/03/09 04:26:48;;;;;;;0.10;0.10;;;;;;;;;;5071245;28;20040;-66
2022/03/09 04:29:13;;;;;;;0.10;0.10;;;;;;;;;;5071276;28;20388;-64
2022/03/09 04:31:39;;;;;;;0.10;0.10;;;;;;;;;;5071154;28;20419;-66
2022/03/09 04:34:05;;;;;;;0.20;0.20;;;;;;;;;;5070828;28;20529;-66
2022/03/09 04:36:31;;;;;;;0.10;0.10;;;;;;;;;;5052910;28;20037;-65
2022/03/09 04:38:57;;;;;;;0.10;0.10;;;;;;;;;;5071010;28;20037;-64
2022/03/09 04:41:23;;;;;;;0.10;0.10;;;;;;;;;;5071185;28;20028;-66
2022/03/09 04:43:48;;;;;;;0.10;0.10;;;;;;;;;;5070922;28;20037;-64
2022/03/09 04:46:14;;;;;;;0.10;0.10;;;;;;;;;;5070850;28;20017;-66
2022/03/09 04:48:39;;;;;;;0.10;0.10;;;;;;;;;;5071051;28;20036;-66
2022/03/09 04:51:05;;;;;;;0.10;0.10;;;;;;;;;;5052822;28;20246;-65
2022/03/09 04:53:31;;;;;;;0.30;0.30;;;;;;;;;;5070473;28;20598;-64
2022/03/09 04:55:57;;;;;;;0.10;0.10;;;;;;;;;;5070894;28;20037;-65
2022/03/09 04:58:24;;;;;;;0.10;0.10;;;;;;;;;;5070385;28;20075;-64
2022/03/09 05:00:50;;;;;;;0.90;0.90;;;;;;;;;;5070711;28;20056;-65
2022/03/09 05:03:15;;;;;;;0.10;0.10;;;;;;;;;;5070435;28;20084;-64
2022/03/09 05:05:41;;;;;;;0.10;0.10;;;;;;;;;;5052332;28;20130;-64
2022/03/09 05:08:07;;;;;;;0.52;0.52;;;;;;;;;;5052042;28;20045;-64
2022/03/09 05:10:32;;;;;;;7.28;6.05;;;;;;;;;;5070402;28;20032;-64
2022/03/09 05:12:58;;;;;;;0.10;0.10;;;;;;;;;;5070707;28;20107;-66
2022/03/09 05:15:23;;;;;;;0.10;0.10;;;;;;;;;;5070555;28;20020;-66
2022/03/09 05:17:49;;;;;;;0.10;0.10;;;;;;;;;;5070575;28;20033;-65
2022/03/09 05:20:17;;;;;;;0.10;0.10;;;;;;;;;;5069950;28;20170;-65
2022/03/09 05:22:43;;;;;;;0.10;0.10;;;;;;;;;;5070021;28;20033;-65
2022/03/09 05:25:09;;;;;;;0.10;0.10;;;;;;;;;;5052161;28;20036;-64
2022/03/09 05:27:35;;;;;;;5.95;4.47;;;;;;;;;;5070283;28;20511;-65
2022/03/09 05:30:00;;;;;;;0.10;0.10;;;;;;;;;;5070155;28;20039;-66
2022/03/09 05:32:26;;;;;;;0.80;0.68;;;;;;;;;;5070131;28;20047;-65
2022/03/09 05:34:52;;;;;;;0.30;0.30;;;;;;;;;;5069953;28;20040;-66
2022/03/09 05:37:17;;;;;;;0.10;0.10;;;;;;;;;;5069985;28;20684;-66
2022/03/09 05:39:43;;;;;;;0.10;0.10;;;;;;;;;;5069887;28;20115;-65
2022/03/09 05:42:09;;;;;;;0.10;0.10;;;;;;;;;;5069855;28;20087;-67
2022/03/09 05:44:34;;;;;;;0.10;0.10;;;;;;;;;;5070412;28;20031;-66
2022/03/09 05:47:00;;;;;;;0.10;0.10;;;;;;;;;;5070201;28;20067;-66
2022/03/09 05:49:25;;;;;;;0.13;0.13;;;;;;;;;;5069819;28;20032;-65
2022/03/09 05:51:52;;;;;;;0.10;0.10;;;;;;;;;;5051816;28;20033;-61
2022/03/09 05:54:18;;;;;;;2.08;1.63;;;;;;;;;;5069613;28;20033;-65
2022/03/09 05:56:44;;;;;;;0.10;0.10;;;;;;;;;;5052148;28;20120;-64
2022/03/09 05:59:09;;;;;;;0.10;0.10;;;;;;;;;;5051789;28;20033;-65
2022/03/09 06:01:35;;;;;;;0.10;0.10;;;;;;;;;;5069260;28;20048;-65
2022/03/09 06:04:02;;;;;;;0.10;0.10;;;;;;;;;;5069800;28;20549;-66
2022/03/09 06:06:28;;;;;;;0.10;0.10;;;;;;;;;;5069458;28;20032;-67
2022/03/09 06:08:53;;;;;;;0.10;0.10;;;;;;;;;;5069421;28;20050;-65
2022/03/09 06:11:19;;;;;;;0.10;0.10;;;;;;;;;;5069446;28;20550;-66
2022/03/09 06:13:45;;;;;;;0.10;0.10;;;;;;;;;;5069582;28;20029;-66
2022/03/09 06:16:11;;;;;;;0.10;0.10;;;;;;;;;;5035034;28;20450;-67
2022/03/09 06:18:36;;;;;;;0.10;0.10;;;;;;;;;;5069577;28;20032;-66
2022/03/09 06:21:02;;;;;;;0.10;0.10;;;;;;;;;;5069173;28;20475;-66
2022/03/09 06:23:27;;;;;;;0.10;0.10;;;;;;;;;;5068542;28;20039;-65
2022/03/09 06:25:53;;;;;;;0.10;0.10;;;;;;;;;;5069143;28;20040;-64
2022/03/09 06:28:18;;;;;;;0.10;0.10;;;;;;;;;;5051138;28;20040;-65
2022/03/09 06:30:45;;;;;;;0.10;0.10;;;;;;;;;;5069267;28;20020;-66
2022/03/09 06:33:11;;;;;;;0.10;0.10;;;;;;;;;;5068910;28;20040;-66
2022/03/09 06:35:37;;;;;;;0.10;0.10;;;;;;;;;;5051067;28;20178;-67
2022/03/09 06:38:02;;;;;;;0.17;0.17;;;;;;;;;;5068676;28;20016;-67
2022/03/09 06:40:28;;;;;;;0.10;0.10;;;;;;;;;;5051000;28;20048;-67
2022/03/09 06:42:53;;;;;;;0.15;0.15;;;;;;;;;;5043174;28;20123;-65
2022/03/09 06:45:19;;;;;;;0.10;0.10;;;;;;;;;;5069058;28;20025;-64
2022/03/09 06:47:45;;;;;;;0.10;0.10;;;;;;;;;;5069136;28;20037;-65
2022/03/09 06:50:11;;;;;;;0.10;0.10;;;;;;;;;;5068556;28;20032;-67
2022/03/09 06:52:36;;;;;;;0.10;0.10;;;;;;;;;;5068733;28;20036;-70
2022/03/09 06:55:03;;;;;;;0.30;0.30;;;;;;;;;;5069000;28;20031;-69
2022/03/09 06:57:32;;;;;;;0.10;0.10;;;;;;;;;;5059031;28;20044;-70
2022/03/09 06:59:58;;;;;;;0.20;0.20;;;;;;;;;;5066816;28;20075;-69
2022/03/09 07:02:23;;;;;;;0.10;0.10;;;;;;;;;;5066599;28;20516;-70
2022/03/09 07:04:51;;;;;;;0.20;0.20;;;;;;;;;;5066995;28;20062;-69
2022/03/09 07:07:16;;;;;;;0.10;0.10;;;;;;;;;;5066548;28;20037;-69
2022/03/09 07:09:41;;;;;;;0.10;0.10;;;;;;;;;;5066520;28;20032;-70
2022/03/09 07:12:07;;;;;;;1.00;0.88;;;;;;;;;;5066231;28;20353;-69
2022/03/09 07:14:33;;;;;;;0.60;0.60;;;;;;;;;;5066637;28;20518;-69
2022/03/09 07:16:58;;;;;;;0.57;0.57;;;;;;;;;;5065904;28;20058;-72
2022/03/09 07:19:24;;;;;;;0.73;0.40;;;;;;;;;;5048961;28;20029;-70
2022/03/09 07:21:50;;;;;;;0.17;0.17;;;;;;;;;;5069207;28;20035;-70
2022/03/09 07:24:15;;;;;;;0.10;0.10;;;;;;;;;;5077855;28;20025;-70
2022/03/09 07:26:42;;;;;;;0.10;0.10;;;;;;;;;;5033806;28;20060;-71
2022/03/09 07:29:08;;;;;;;0.10;0.10;;;;;;;;;;5050447;28;20430;-70
2022/03/09 07:31:34;;;;;;;0.10;0.10;;;;;;;;;;5068654;28;20086;-71
2022/03/09 07:34:00;;;;;;;0.10;0.10;;;;;;;;;;5068464;28;20480;-70
2022/03/09 07:36:25;;;;;;;0.40;0.40;;;;;;;;;;5071404;28;20123;-70
2022/03/09 07:38:50;;;;;;;0.10;0.10;;;;;;;;;;5064922;28;20920;-70
2022/03/09 07:41:16;;;;;;;0.10;0.10;;;;;;;;;;5089751;28;20078;-70
2022/03/09 07:43:42;;;;;;;2.20;0.93;;;;;;;;;;5091404;28;20027;-69
2022/03/09 07:46:09;;;;;;;0.10;0.10;;;;;;;;;;5092204;28;20036;-69
2022/03/09 07:48:34;;;;;;;0.10;0.10;;;;;;;;;;5091117;28;20040;-70
2022/03/09 07:51:00;;;;;;;0.17;0.17;;;;;;;;;;5076714;28;20035;-70
2022/03/09 07:53:26;;;;;;;0.20;0.20;;;;;;;;;;5080096;28;20077;-69
2022/03/09 07:55:51;;;;;;;0.25;0.22;;;;;;;;;;5091951;28;20032;-69
2022/03/09 07:58:17;;;;;;;0.10;0.10;;;;;;;;;;5091897;28;20112;-69
2022/03/09 08:00:42;;;;;;;0.10;0.10;;;;;;;;;;5066927;28;20377;-70
2022/03/09 08:03:08;;;;;;;0.10;0.10;;;;;;;;;;5070255;28;20459;-70
2022/03/09 08:05:34;;;;;;;0.17;0.17;;;;;;;;;;5071314;28;20036;-70
2022/03/09 08:07:59;;;;;;;0.10;0.10;;;;;;;;;;5069700;28;20438;-70
2022/03/09 08:10:26;;;;;;;0.10;0.10;;;;;;;;;;5069176;28;20089;-69
2022/03/09 08:12:51;;;;;;;0.10;0.10;;;;;;;;;;5068486;28;20032;-69
2022/03/09 08:15:17;;;;;;;0.10;0.10;;;;;;;;;;5050477;28;20036;-70
2022/03/09 08:17:42;;;;;;;0.10;0.10;;;;;;;;;;5069140;28;20064;-66
2022/03/09 08:20:08;;;;;;;0.10;0.10;;;;;;;;;;5069185;28;20046;-69
2022/03/09 08:22:34;;;;;;;0.10;0.10;;;;;;;;;;5068622;28;20040;-69
2022/03/09 08:24:59;;;;;;;0.10;0.10;;;;;;;;;;5068392;28;20044;-69
2022/03/09 08:27:25;;;;;;;0.10;0.10;;;;;;;;;;5070528;28;20111;-69
2022/03/09 08:29:50;;;;;;;0.30;0.30;;;;;;;;;;5052930;28;20045;-69
2022/03/09 08:32:18;;;;;;;0.10;0.10;;;;;;;;;;5069886;28;20499;-69
2022/03/09 08:34:44;;;;;;;0.10;0.10;;;;;;;;;;5070051;28;20190;-69
2022/03/09 08:37:09;;;;;;;0.10;0.10;;;;;;;;;;5072769;28;20123;-69
2022/03/09 08:39:35;;;;;;;0.35;0.35;;;;;;;;;;5076660;28;20056;-70
2022/03/09 08:42:00;;;;;;;0.20;0.20;;;;;;;;;;5085616;28;20103;-69
2022/03/09 08:44:26;;;;;;;0.10;0.10;;;;;;;;;;5088321;28;20042;-69
2022/03/09 08:46:53;;;;;;;0.10;0.10;;;;;;;;;;5088883;28;20038;-69
2022/03/09 08:49:19;;;;;;;0.20;0.20;;;;;;;;;;5072151;28;20035;-69
2022/03/09 08:51:44;;;;;;;0.10;0.10;;;;;;;;;;5089288;28;20093;-70
2022/03/09 08:54:10;;;;;;;0.10;0.10;;;;;;;;;;5089614;28;20541;-70
2022/03/09 08:56:35;;;;;;;0.28;0.28;;;;;;;;;;5090543;28;20055;-61
2022/03/09 08:59:01;;;;;;;0.20;0.20;;;;;;;;;;5089005;28;20028;-61
2022/03/09 09:01:27;;;;;;;0.20;0.20;;;;;;;;;;5088804;28;20036;-62
2022/03/09 09:03:52;;;;;;;0.20;0.20;;;;;;;;;;5088812;28;20035;-60
2022/03/09 09:06:17;;;;;;;0.10;0.10;;;;;;;;;;5087475;28;20035;-62
2022/03/09 09:08:44;;;;;;;0.10;0.10;;;;;;;;;;5087747;28;20097;-61
2022/03/09 09:11:11;;;;;;;0.70;0.47;;;;;;;;;;5088765;28;20521;-61
2022/03/09 09:13:36;;;;;;;0.50;0.38;;;;;;;;;;5089462;28;20051;-62
2022/03/09 09:16:02;;;;;;;0.20;0.20;;;;;;;;;;5089429;28;20028;-62
2022/03/09 09:18:28;;;;;;;0.55;0.55;;;;;;;;;;5085220;28;20031;-60
2022/03/09 09:20:54;;;;;;;0.20;0.20;;;;;;;;;;5090845;28;20032;-61
2022/03/09 09:23:19;;;;;;;0.20;0.20;;;;;;;;;;5088849;28;20040;-62
2022/03/09 09:25:45;;;;;;;0.20;0.20;;;;;;;;;;5070008;28;20032;-62
2022/03/09 09:28:10;;;;;;;0.20;0.20;;;;;;;;;;5049661;28;20443;-64
2022/03/09 09:30:36;;;;;;;0.20;0.20;;;;;;;;;;5070077;28;20107;-61
2022/03/09 09:33:02;;;;;;;0.30;0.30;;;;;;;;;;5069979;28;20563;-63
2022/03/09 09:35:28;;;;;;;0.20;0.20;;;;;;;;;;5069844;28;20130;-62
2022/03/09 09:37:53;;;;;;;1.42;1.42;;;;;;;;;;5069892;28;20115;-63
2022/03/09 09:40:19;;;;;;;0.28;0.28;;;;;;;;;;5070041;28;20939;-61
2022/03/09 09:42:45;;;;;;;0.90;0.90;;;;;;;;;;5035213;28;20033;-63
2022/03/09 09:45:10;;;;;;;0.20;0.20;;;;;;;;;;5070288;28;20037;-62
2022/03/09 09:47:36;;;;;;;0.30;0.30;;;;;;;;;;5069633;28;20032;-62
2022/03/09 09:50:03;;;;;;;0.30;0.30;;;;;;;;;;5070017;28;20067;-63
2022/03/09 09:52:32;;;;;;;0.20;0.20;;;;;;;;;;5069698;28;20045;-63
2022/03/09 09:54:59;;;;;;;0.30;0.30;;;;;;;;;;5070047;28;20375;-63
2022/03/09 09:57:26;;;;;;;0.20;0.20;;;;;;;;;;5068668;28;20115;-62
2022/03/09 09:59:52;;;;;;;0.30;0.30;;;;;;;;;;5069824;28;20078;-62
2022/03/09 10:02:17;;;;;;;0.22;0.22;;;;;;;;;;5051598;28;20032;-63
2022/03/09 10:04:44;;;;;;;0.85;0.68;;;;;;;;;;5069706;28;20044;-62
2022/03/09 10:07:10;;;;;;;0.30;0.30;;;;;;;;;;5069561;28;20086;-62
2022/03/09 10:09:39;;;;;;;0.73;0.73;;;;;;;;;;5069634;28;20040;-63
2022/03/09 10:12:06;;;;;;;0.28;0.28;;;;;;;;;;5068009;28;20047;-62
2022/03/09 10:14:47;;;;;;;0.28;0.28;;;;;;;;;;5069048;28;20115;-62
2022/03/09 10:17:34;;;;;;;0.40;0.40;;;;;;;;;;5069663;28;20051;-62
2022/03/09 10:20:07;;;;;;;0.40;0.40;;;;;;;;;;5069435;28;20029;-62
2022/03/09 10:22:35;;;;;;;0.88;0.80;;;;;;;;;;5068651;28;20024;-62
2022/03/09 10:25:15;;;;;;;0.43;0.43;;;;;;;;;;5068090;28;20024;-61
2022/03/09 10:27:45;;;;;;;0.20;0.20;;;;;;;;;;5052976;28;20488;-62
2022/03/09 10:30:12;;;;;;;0.30;0.30;;;;;;;;;;5068881;28;20067;-63
2022/03/09 10:32:52;;;;;;;5.72;2.22;;;;;;;;;;5069883;28;20041;-63
2022/03/09 10:35:19;;;;;;;0.57;0.57;;;;;;;;;;5087114;28;20024;-62
2022/03/09 10:37:45;;;;;;;1.17;0.95;;;;;;;;;;5082743;28;20358;-62
2022/03/09 10:40:14;;;;;;;0.40;0.40;;;;;;;;;;5087340;28;20039;-62
2022/03/09 10:42:39;;;;;;;0.30;0.30;;;;;;;;;;5065200;28;20040;-61
2022/03/09 10:45:07;;;;;;;0.30;0.30;;;;;;;;;;5077881;28;20126;-62
2022/03/09 10:47:33;;;;;;;0.32;0.32;;;;;;;;;;5077695;28;20392;-62
2022/03/09 10:50:19;;;;;;;0.20;0.20;;;;;;;;;;5078264;28;20115;-62
2022/03/09 10:52:44;;;;;;;0.30;0.30;;;;;;;;;;5048893;28;20037;-61
2022/03/09 10:55:19;;;;;;;0.25;0.25;;;;;;;;;;5030923;28;20488;-62
2022/03/09 10:57:44;;;;;;;0.30;0.30;;;;;;;;;;5048606;28;20041;-61
2022/03/09 11:00:11;;;;;;;0.50;0.50;;;;;;;;;;5048424;28;20075;-62
2022/03/09 11:02:47;;;;;;;0.55;0.55;;;;;;;;;;5065845;28;20028;-61
2022/03/09 11:05:13;;;;;;;0.30;0.30;;;;;;;;;;5085134;28;20368;-63
2022/03/09 11:07:39;;;;;;;0.20;0.20;;;;;;;;;;5076159;28;20495;-62
2022/03/09 11:10:06;;;;;;;1.50;1.40;;;;;;;;;;5088411;28;20020;-62
2022/03/09 11:12:31;;;;;;;1.75;1.00;;;;;;;;;;5088983;28;20028;-63
2022/03/09 11:14:57;;;;;;;2.35;1.00;;;;;;;;;;5088815;28;20024;-62
2022/03/09 11:17:23;;;;;;;0.40;0.40;;;;;;;;;;5080333;28;20122;-62
2022/03/09 11:19:48;;;;;;;0.30;0.30;;;;;;;;;;5068329;28;20020;-63
2022/03/09 11:22:14;;;;;;;1.30;0.98;;;;;;;;;;5070557;28;20153;-63
2022/03/09 11:24:40;;;;;;;0.73;0.65;;;;;;;;;;5068538;28;20029;-61
2022/03/09 11:27:07;;;;;;;2.75;1.27;;;;;;;;;;5074880;28;20558;-62
2022/03/09 11:29:35;;;;;;;0.52;0.40;;;;;;;;;;5088685;28;20040;-60
2022/03/09 11:32:01;;;;;;;0.20;0.20;;;;;;;;;;5088697;28;20541;-61
2022/03/09 11:34:38;;;;;;;5.03;2.17;;;;;;;;;;5088443;28;20047;-61
2022/03/09 11:37:03;;;;;;;0.75;0.75;;;;;;;;;;5088609;28;20035;-61
2022/03/09 11:39:29;;;;;;;1.02;0.80;;;;;;;;;;5088423;28;20032;-61
2022/03/09 11:42:13;;;;;;;0.20;0.20;;;;;;;;;;5088519;28;20032;-61
2022/03/09 11:44:39;;;;;;;1.77;1.33;;;;;;;;;;5086311;28;20044;-61
2022/03/09 11:47:06;;;;;;;4.10;1.55;;;;;;;;;;5073367;28;20115;-62
2022/03/09 11:49:53;;;;;;;1.23;1.02;;;;;;;;;;5067904;28;20056;-61
2022/03/09 11:52:24;;;;;;;2.05;1.35;;;;;;;;;;5036874;28;20040;-62
2022/03/09 11:54:55;;;;;;;0.30;0.30;;;;;;;;;;5068081;28;20043;-61
2022/03/09 11:57:23;;;;;;;7.18;0.95;;;;;;;;;;5068267;28;20032;-62
2022/03/09 11:59:54;;;;;;;1.90;1.02;;;;;;;;;;5067696;28;20068;-62
2022/03/09 12:02:21;;;;;;;2.30;1.33;;;;;;;;;;5067494;28;20025;-63
2022/03/09 12:04:50;;;;;;;5.38;1.75;;;;;;;;;;5065452;28;20131;-61
2022/03/09 12:07:28;;;;;;;1.87;1.50;;;;;;;;;;5068234;28;20036;-61
2022/03/09 12:09:57;;;;;;;0.82;0.82;;;;;;;;;;5067934;28;20041;-62
2022/03/09 12:12:23;;;;;;;0.20;0.20;;;;;;;;;;5067652;28;20110;-62
2022/03/09 12:15:01;;;;;;;1.10;0.90;;;;;;;;;;5067841;28;20036;-62
2022/03/09 12:17:27;;;;;;;0.50;0.50;;;;;;;;;;5067658;28;20392;-63
2022/03/09 12:20:12;;;;;;;0.30;0.30;;;;;;;;;;5068237;28;20040;-63
2022/03/09 12:22:56;;;;;;;0.40;0.40;;;;;;;;;;5070849;28;20369;-65
2022/03/09 12:25:40;;;;;;;1.30;1.20;;;;;;;;;;5070829;28;20044;-63
2022/03/09 12:28:24;;;;;;;0.22;0.22;;;;;;;;;;5054695;28;20032;-62
2022/03/09 12:30:53;;;;;;;0.88;0.88;;;;;;;;;;5068172;28;20546;-62
2022/03/09 12:33:28;;;;;;;1.55;1.45;;;;;;;;;;5069108;28;20032;-63
2022/03/09 12:36:03;;;;;;;0.50;0.50;;;;;;;;;;5050763;28;20067;-61
2022/03/09 12:38:54;;;;;;;0.68;0.55;;;;;;;;;;5067670;28;20515;-62
2022/03/09 12:41:27;;;;;;;0.70;0.68;;;;;;;;;;5063942;28;20442;-62
2022/03/09 12:44:00;;;;;;;1.27;1.17;;;;;;;;;;5067673;28;20036;-61
2022/03/09 12:46:26;;;;;;;0.30;0.30;;;;;;;;;;5068504;28;20068;-63
2022/03/09 12:49:24;;;;;;;0.32;0.32;;;;;;;;;;5068417;28;20040;-63
2022/03/09 12:51:51;;;;;;;0.85;0.82;;;;;;;;;;5016760;28;20609;-61
2022/03/09 12:54:28;;;;;;;2.90;1.92;;;;;;;;;;5069062;28;20042;-61
2022/03/09 12:56:54;;;;;;;0.45;0.28;;;;;;;;;;5068776;28;20115;-61
2022/03/09 12:59:19;;;;;;;0.40;0.40;;;;;;;;;;5067388;28;20044;-64
2022/03/09 13:01:52;;;;;;;0.30;0.30;;;;;;;;;;5069752;28;20069;-62
2022/03/09 13:04:20;;;;;;;0.93;0.88;;;;;;;;;;5072458;28;20036;-61
2022/03/09 13:06:45;;;;;;;0.40;0.40;;;;;;;;;;5071204;28;20028;-60
2022/03/09 13:09:21;;;;;;;0.22;0.22;;;;;;;;;;5074748;28;20617;-62
2022/03/09 13:11:47;;;;;;;1.25;0.82;;;;;;;;;;5086786;28;20032;-63
2022/03/09 13:14:13;;;;;;;0.35;0.35;;;;;;;;;;5069066;28;20506;-59
2022/03/09 13:16:39;;;;;;;0.57;0.57;;;;;;;;;;5046039;28;20028;-60
2022/03/09 13:19:05;;;;;;;2.63;2.03;;;;;;;;;;5053417;28;20047;-59
2022/03/09 13:21:31;;;;;;;2.42;1.60;;;;;;;;;;5089076;28;20539;-59
2022/03/09 13:24:00;;;;;;;0.60;0.57;;;;;;;;;;5071839;28;20072;-61
2022/03/09 13:26:26;;;;;;;;;;;;;;;;;;5070771;28;20051;-60
2022/03/09 13:28:56;;;;;;;0.83;0.70;;;;;;;;;;5087871;28;19928;-60
2022/03/09 13:31:21;;;;;;;0.40;0.38;;;;;;;;;;5053139;28;20272;-59
2022/03/09 13:33:48;;;;;;;1.95;1.75;;;;;;;;;;5088339;28;20031;-61
2022/03/09 13:36:14;;;;;;;1.38;0.60;;;;;;;;;;5053108;28;20518;-61
2022/03/09 13:38:42;;;;;;;0.77;0.70;;;;;;;;;;5053394;28;20032;-60
2022/03/09 13:41:09;;;;;;;3.05;1.00;;;;;;;;;;5053032;28;20085;-61
2022/03/09 13:43:38;;;;;;;0.28;0.28;;;;;;;;;;5088012;28;20042;-59
2022/03/09 13:46:15;;;;;;;2.72;1.52;;;;;;;;;;5069742;28;20039;-60
2022/03/09 13:48:41;;;;;;;0.50;0.40;;;;;;;;;;5053293;28;20109;-60
2022/03/09 13:51:07;;;;;;;0.30;0.30;;;;;;;;;;5089312;28;20480;-60
2022/03/09 13:53:34;;;;;;;0.47;0.47;;;;;;;;;;5090199;28;20487;-60
2022/03/09 13:56:00;;;;;;;1.10;1.00;;;;;;;;;;5056615;28;20041;-59
2022/03/09 13:58:27;;;;;;;0.30;0.30;;;;;;;;;;5031089;28;20115;-65
2022/03/09 14:01:03;;;;;;;0.30;0.30;;;;;;;;;;5015131;28;20047;-59
2022/03/09 14:03:29;;;;;;;2.28;1.00;;;;;;;;;;5049432;28;20520;-61
2022/03/09 14:05:54;;;;;;;0.98;0.75;;;;;;;;;;5049517;28;20029;-60
2022/03/09 14:08:24;;;;;;;1.70;1.13;;;;;;;;;;5049107;28;20090;-61
2022/03/09 14:10:51;;;;;;;0.93;0.93;;;;;;;;;;5015126;28;20510;-61
2022/03/09 14:13:17;;;;;;;0.40;0.40;;;;;;;;;;5015237;28;20120;-61
2022/03/09 14:15:43;;;;;;;0.20;0.20;;;;;;;;;;5031566;28;20065;-60
2022/03/09 14:18:09;;;;;;;1.30;1.15;;;;;;;;;;5014836;28;20083;-60
2022/03/09 14:20:34;;;;;;;0.40;0.40;;;;;;;;;;5049582;28;20488;-60
2022/03/09 14:23:00;;;;;;;0.43;0.43;;;;;;;;;;5031482;28;20489;-59
2022/03/09 14:25:26;;;;;;;0.65;0.47;;;;;;;;;;5049560;28;20489;-59
2022/03/09 14:27:53;;;;;;;4.60;2.47;;;;;;;;;;5031156;28;20432;-60
2022/03/09 14:30:19;;;;;;;0.30;0.30;;;;;;;;;;5048831;28;20041;-60
2022/03/09 14:32:45;;;;;;;0.60;0.60;;;;;;;;;;5031713;28;20132;-59
2022/03/09 14:35:15;;;;;;;1.52;1.20;;;;;;;;;;5049156;28;20520;-64
2022/03/09 14:37:40;;;;;;;;;;;;;;;;;;5031738;28;20037;-60
2022/03/09 14:40:05;;;;;;;0.60;0.60;;;;;;;;;;5049416;28;20283;-59
2022/03/09 14:42:31;;;;;;;1.85;1.42;;;;;;;;;;5049054;28;20263;-59
2022/03/09 14:44:57;;;;;;;0.45;0.45;;;;;;;;;;5047620;28;20048;-64